Time;durP1;ratioP1;P1;durP2;ratioP2;P2;SDS_P1;SDS_P2;PMS_P1;PMS_P2;Temp;Humidity;BMP_temperature;BMP_pressure;BME280_temperature;BME280_humidity;BME280_pressure;Samples;Min_cycle;Max_cycle;Signal;HPM_P1;HPM_P2
2023/10/01 00:00:07;;;;;;;25.37;17.93;;;8.60;99.90;;;;;;5092906;28;20647;-70
2023/10/01 00:02:34;;;;;;;25.20;17.40;;;8.50;99.90;;;;;;5092849;28;20191;-69
2023/10/01 00:05:01;;;;;;;24.73;17.90;;;8.40;99.90;;;;;;5092710;28;20235;-69
2023/10/01 00:07:29;;;;;;;23.77;17.03;;;8.60;99.90;;;;;;5092694;28;20265;-68
2023/10/01 00:09:56;;;;;;;23.93;17.13;;;8.50;99.90;;;;;;5092477;28;20192;-69
2023/10/01 00:12:23;;;;;;;23.63;16.77;;;8.50;99.90;;;;;;5092608;28;20224;-69
2023/10/01 00:14:52;;;;;;;24.60;17.90;;;8.70;99.90;;;;;;5092552;28;20192;-69
2023/10/01 00:17:20;;;;;;;22.03;17.13;;;8.80;99.90;;;;;;5092652;28;20193;-69
2023/10/01 00:19:47;;;;;;;22.47;15.60;;;8.80;99.90;;;;;;5096842;28;20224;-69
2023/10/01 00:22:14;;;;;;;29.60;17.20;;;8.80;99.90;;;;;;5096810;28;20192;-69
2023/10/01 00:24:43;;;;;;;27.23;16.97;;;8.60;99.90;;;;;;5096650;28;20195;-69
2023/10/01 00:27:09;;;;;;;29.63;16.37;;;8.50;99.90;;;;;;5096809;28;20242;-69
2023/10/01 00:29:36;;;;;;;26.07;17.87;;;8.40;99.90;;;;;;5096723;28;20200;-70
2023/10/01 00:32:02;;;;;;;22.37;16.20;;;8.30;99.90;;;;;;5096430;28;20601;-69
2023/10/01 00:34:29;;;;;;;24.47;16.93;;;8.40;99.90;;;;;;5096291;28;20196;-69
2023/10/01 00:36:56;;;;;;;24.60;16.73;;;8.50;99.90;;;;;;5096562;28;20200;-70
2023/10/01 00:39:22;;;;;;;21.47;15.63;;;8.30;99.90;;;;;;5096330;28;20196;-69
2023/10/01 00:41:52;;;;;;;24.70;16.63;;;8.10;99.90;;;;;;5096594;28;20237;-69
2023/10/01 00:44:19;;;;;;;24.37;16.00;;;8.10;99.90;;;;;;5096651;28;20235;-69
2023/10/01 00:46:45;;;;;;;25.07;16.63;;;8.10;99.90;;;;;;5096508;28;20193;-69
2023/10/01 00:49:13;;;;;;;29.07;16.93;;;8.10;99.90;;;;;;5096160;28;20200;-69
2023/10/01 00:51:43;;;;;;;23.00;17.20;;;8.20;99.90;;;;;;5096029;28;20551;-70
2023/10/01 00:54:11;;;;;;;27.70;17.50;;;8.30;99.90;;;;;;5096350;28;20285;-69
2023/10/01 00:56:39;;;;;;;27.43;17.17;;;8.50;99.90;;;;;;5096383;28;20232;-70
2023/10/01 00:59:10;;;;;;;24.60;17.13;;;8.50;99.90;;;;;;5096343;28;20199;-71
2023/10/01 01:01:39;;;;;;;25.83;17.43;;;8.40;99.90;;;;;;5096178;28;20235;-70
2023/10/01 01:04:10;;;;;;;28.87;16.73;;;8.40;99.90;;;;;;5096023;28;20610;-70
2023/10/01 01:06:39;;;;;;;30.33;18.03;;;8.50;99.90;;;;;;5096187;28;20598;-69
2023/10/01 01:09:10;;;;;;;24.77;16.77;;;8.30;99.90;;;;;;5096052;28;20228;-70
2023/10/01 01:11:37;;;;;;;23.57;15.97;;;8.10;99.90;;;;;;5095940;28;20224;-69
2023/10/01 01:14:07;;;;;;;22.33;15.77;;;8.00;99.90;;;;;;5095936;28;20261;-69
2023/10/01 01:16:34;;;;;;;23.10;15.40;;;7.90;99.90;;;;;;5095792;28;20192;-70
2023/10/01 01:19:01;;;;;;;21.93;15.93;;;7.80;99.90;;;;;;5095637;28;20199;-69
2023/10/01 01:21:28;;;;;;;22.60;15.20;;;7.70;99.90;;;;;;5095692;28;20721;-70
2023/10/01 01:23:57;;;;;;;19.73;15.03;;;7.70;99.90;;;;;;5095849;28;20199;-69
2023/10/01 01:26:25;;;;;;;20.67;15.63;;;7.60;99.90;;;;;;5095703;28;20731;-69
2023/10/01 01:28:52;;;;;;;19.30;14.13;;;7.60;99.90;;;;;;5095607;28;20205;-69
2023/10/01 01:31:19;;;;;;;20.77;14.47;;;7.60;99.90;;;;;;5095472;28;20200;-70
2023/10/01 01:33:52;;;;;;;22.40;14.70;;;7.50;99.90;;;;;;5095641;28;20311;-70
2023/10/01 01:36:20;;;;;;;21.47;14.60;;;7.50;99.90;;;;;;5095340;28;20281;-70
2023/10/01 01:39:09;;;;;;;19.60;14.40;;;7.60;99.90;;;;;;5095462;28;20279;-70
2023/10/01 01:41:42;;;;;;;20.87;14.37;;;7.80;99.90;;;;;;5095384;28;20200;-70
2023/10/01 01:44:10;;;;;;;20.67;14.43;;;7.90;99.90;;;;;;5095614;28;20200;-70
2023/10/01 01:46:47;;;;;;;21.70;15.43;;;7.90;99.90;;;;;;5095471;28;20199;-70
2023/10/01 01:49:15;;;;;;;18.67;15.10;;;7.70;99.90;;;;;;5095250;28;20207;-70
2023/10/01 01:51:56;;;;;;;21.43;15.27;;;7.90;99.90;;;;;;5095253;28;20287;-70
2023/10/01 01:54:26;;;;;;;19.70;15.03;;;8.00;99.90;;;;;;5094851;28;20197;-69
2023/10/01 01:56:55;;;;;;;21.97;15.83;;;8.10;99.90;;;;;;5095310;28;20287;-70
2023/10/01 01:59:24;;;;;;;24.70;15.73;;;8.10;99.90;;;;;;5094930;28;20246;-70
2023/10/01 02:01:52;;;;;;;21.57;14.83;;;8.00;99.90;;;;;;5094956;28;20200;-69
2023/10/01 02:04:20;;;;;;;18.07;13.80;;;8.00;99.90;;;;;;5094865;28;20238;-71
2023/10/01 02:06:47;;;;;;;18.77;14.20;;;8.10;99.90;;;;;;5094790;28;20314;-69
2023/10/01 02:09:19;;;;;;;17.87;13.60;;;8.10;99.90;;;;;;5095032;28;20606;-69
2023/10/01 02:11:48;;;;;;;19.37;15.00;;;8.00;99.90;;;;;;5094754;28;20193;-69
2023/10/01 02:14:30;;;;;;;17.80;13.20;;;7.80;99.90;;;;;;5094773;28;20257;-69
2023/10/01 02:17:02;;;;;;;19.27;13.90;;;7.70;99.90;;;;;;5094760;28;20204;-69
2023/10/01 02:19:30;;;;;;;20.83;14.03;;;7.60;99.90;;;;;;5094715;28;20777;-69
2023/10/01 02:22:02;;;;;;;18.50;13.97;;;7.80;99.90;;;;;;5094735;28;20192;-69
2023/10/01 02:24:44;;;;;;;18.57;13.70;;;7.80;99.90;;;;;;5094707;28;20205;-69
2023/10/01 02:27:13;;;;;;;24.60;15.33;;;7.60;99.90;;;;;;5094588;28;20228;-69
2023/10/01 02:30:11;;;;;;;23.73;15.33;;;7.40;99.90;;;;;;5096029;28;20196;-69
2023/10/01 02:32:35;;;;;;;24.23;15.43;;;7.40;99.90;;;;;;5099484;28;20268;-69
2023/10/01 02:35:33;;;;;;;18.77;13.43;;;7.30;99.90;;;;;;5100946;28;20300;-69
2023/10/01 02:37:50;;;;;;;20.57;13.57;;;7.30;99.90;;;;;;5094393;28;20655;-68
2023/10/01 02:40:18;;;;;;;19.27;14.10;;;7.20;99.90;;;;;;5093689;28;20196;-68
2023/10/01 02:42:49;;;;;;;19.40;13.43;;;7.10;99.90;;;;;;5094397;28;20237;-68
2023/10/01 02:48:16;;;;;;;17.07;13.13;;;7.00;99.90;;;;;;5151820;27;21093;-69
2023/10/01 02:50:45;;;;;;;17.67;13.03;;;7.00;99.90;;;;;;5151547;27;20334;-69
2023/10/01 02:53:13;;;;;;;18.37;13.37;;;6.90;99.90;;;;;;5151694;27;20673;-69
2023/10/01 02:55:44;;;;;;;17.73;12.60;;;6.90;99.90;;;;;;5151629;27;20709;-68
2023/10/01 02:58:18;;;;;;;16.40;12.43;;;6.80;99.90;;;;;;5151693;27;20225;-68
2023/10/01 03:00:44;;;;;;;18.03;12.57;;;6.80;99.90;;;;;;5151543;27;20286;-69
2023/10/01 03:03:15;;;;;;;19.87;13.50;;;7.10;99.90;;;;;;5151462;27;20553;-68
2023/10/01 03:05:43;;;;;;;16.47;12.93;;;7.10;99.90;;;;;;5151440;27;20695;-69
2023/10/01 03:08:25;;;;;;;16.00;13.10;;;7.00;99.90;;;;;;5151549;27;20308;-69
2023/10/01 03:10:52;;;;;;;18.07;14.40;;;6.90;99.90;;;;;;5151433;27;20289;-69
2023/10/01 03:13:22;;;;;;;16.57;13.17;;;6.90;99.90;;;;;;5151221;27;20199;-69
2023/10/01 03:16:39;;;;;;;16.87;12.57;;;6.90;99.90;;;;;;5151561;27;20251;-69
2023/10/01 03:18:38;;;;;;;20.60;15.57;;;6.90;99.90;;;;;;5151105;27;20194;-69
2023/10/01 03:21:17;;;;;;;21.00;14.03;;;7.00;99.90;;;;;;5151216;27;20205;-69
2023/10/01 03:23:51;;;;;;;21.03;14.83;;;7.10;99.90;;;;;;5151008;27;20567;-70
2023/10/01 03:26:18;;;;;;;17.40;13.43;;;7.10;99.90;;;;;;5150999;27;20225;-69
2023/10/01 03:31:29;;;;;;;16.47;13.27;;;7.00;99.90;;;;;;5150957;27;20247;-69
2023/10/01 03:33:58;;;;;;;19.63;14.33;;;7.20;99.90;;;;;;5150886;27;20290;-69
2023/10/01 03:36:28;;;;;;;17.23;12.83;;;7.20;99.90;;;;;;5150746;27;20301;-69
2023/10/01 03:38:59;;;;;;;17.17;13.57;;;7.00;99.90;;;;;;5150611;27;20675;-69
2023/10/01 03:41:27;;;;;;;18.93;13.83;;;7.00;99.90;;;;;;5150860;27;20198;-69
2023/10/01 03:43:57;;;;;;;19.67;13.93;;;7.00;99.90;;;;;;5150672;27;20197;-69
2023/10/01 03:46:26;;;;;;;21.43;15.90;;;7.00;99.90;;;;;;5150254;27;20619;-69
2023/10/01 03:49:00;;;;;;;20.23;14.27;;;6.90;99.90;;;;;;5150450;27;20233;-70
2023/10/01 03:54:14;;;;;;;22.40;15.73;;;6.90;99.90;;;;;;5148476;27;20195;-70
2023/10/01 03:56:45;;;;;;;21.87;15.50;;;6.90;99.90;;;;;;5150374;27;20202;-70
2023/10/01 03:59:16;;;;;;;20.40;14.87;;;6.90;99.90;;;;;;5138331;27;20206;-70
2023/10/01 04:01:58;;;;;;;17.87;13.17;;;7.00;99.90;;;;;;5136692;27;20202;-70
2023/10/01 04:04:27;;;;;;;19.00;13.70;;;6.90;99.90;;;;;;5136656;27;20198;-70
2023/10/01 04:06:59;;;;;;;21.03;14.87;;;6.90;99.90;;;;;;5136333;27;20309;-70
2023/10/01 04:09:27;;;;;;;16.90;13.57;;;7.00;99.90;;;;;;5136387;27;20194;-70
2023/10/01 04:12:18;;;;;;;22.50;15.07;;;7.20;99.90;;;;;;5136210;27;20285;-70
2023/10/01 04:14:46;;;;;;;19.20;13.60;;;7.20;99.90;;;;;;5136237;27;20203;-70
2023/10/01 04:17:13;;;;;;;19.33;15.23;;;7.00;99.90;;;;;;5136335;27;20195;-70
2023/10/01 04:19:43;;;;;;;21.40;14.67;;;6.90;99.90;;;;;;5136233;27;20195;-70
2023/10/01 04:22:10;;;;;;;20.17;14.53;;;6.90;99.90;;;;;;5136130;27;20195;-70
2023/10/01 04:24:37;;;;;;;18.87;13.87;;;6.80;99.90;;;;;;5136370;27;20197;-70
2023/10/01 04:27:18;;;;;;;19.27;14.57;;;6.70;99.90;;;;;;5136168;27;20222;-70
2023/10/01 04:29:46;;;;;;;16.83;13.70;;;6.70;99.90;;;;;;5136294;27;20198;-70
2023/10/01 04:32:13;;;;;;;18.30;14.10;;;6.70;99.90;;;;;;5135912;27;20206;-70
2023/10/01 04:34:44;;;;;;;20.57;14.77;;;6.70;99.90;;;;;;5135866;27;20631;-70
2023/10/01 04:37:12;;;;;;;17.77;13.50;;;6.60;99.90;;;;;;5136149;27;20546;-70
2023/10/01 04:39:38;;;;;;;22.53;14.60;;;6.60;99.90;;;;;;5136058;27;20200;-70
2023/10/01 04:42:08;;;;;;;23.87;16.63;;;6.60;99.90;;;;;;5135834;27;20206;-70
2023/10/01 04:44:35;;;;;;;25.30;16.63;;;6.70;99.90;;;;;;5135773;27;20199;-70
2023/10/01 04:47:30;;;;;;;30.30;17.10;;;6.90;99.90;;;;;;5135385;27;20335;-70
2023/10/01 04:49:51;;;;;;;32.90;19.13;;;6.90;99.90;;;;;;5135372;27;20205;-70
2023/10/01 04:52:24;;;;;;;29.90;18.53;;;7.00;99.90;;;;;;5135466;27;20650;-69
2023/10/01 04:54:50;;;;;;;28.60;17.47;;;7.00;99.90;;;;;;5135515;27;20201;-70
2023/10/01 04:57:19;;;;;;;29.40;17.77;;;6.80;99.90;;;;;;5135455;27;20208;-70
2023/10/01 04:59:56;;;;;;;23.80;16.40;;;6.90;99.90;;;;;;5135302;27;20223;-69
2023/10/01 05:02:23;;;;;;;24.10;16.40;;;6.80;99.90;;;;;;5135445;27;20209;-69
2023/10/01 05:04:51;;;;;;;29.33;17.77;;;6.80;99.90;;;;;;5135453;27;20203;-69
2023/10/01 05:07:19;;;;;;;30.37;18.30;;;6.80;99.90;;;;;;5135183;27;20765;-69
2023/10/01 05:09:47;;;;;;;25.50;16.87;;;6.80;99.90;;;;;;5134232;27;20203;-69
2023/10/01 05:12:15;;;;;;;24.87;16.80;;;6.90;99.90;;;;;;5135179;27;20230;-69
2023/10/01 05:14:59;;;;;;;28.57;18.00;;;6.80;99.90;;;;;;5135260;27;20210;-68
2023/10/01 05:17:30;;;;;;;30.00;18.43;;;6.80;99.90;;;;;;5135255;27;20226;-70
2023/10/01 05:19:58;;;;;;;24.67;16.57;;;6.80;99.90;;;;;;5135189;27;20607;-69
2023/10/01 05:22:26;;;;;;;23.60;16.90;;;6.80;99.90;;;;;;5134988;27;20314;-70
2023/10/01 05:24:53;;;;;;;26.13;16.90;;;7.00;99.90;;;;;;5134788;27;20286;-69
2023/10/01 05:27:19;;;;;;;25.47;15.90;;;7.00;99.90;;;;;;5134947;27;20270;-69
2023/10/01 05:29:46;;;;;;;28.63;16.07;;;7.00;99.90;;;;;;5134915;27;20218;-69
2023/10/01 05:32:13;;;;;;;23.47;16.03;;;7.00;99.90;;;;;;5134871;27;20195;-69
2023/10/01 05:34:42;;;;;;;21.20;15.50;;;6.90;99.90;;;;;;5134876;27;20195;-69
2023/10/01 05:37:12;;;;;;;20.80;15.37;;;6.90;99.90;;;;;;5134667;27;20203;-69
2023/10/01 05:42:35;;;;;;;18.47;13.27;;;7.10;99.90;;;;;;5130974;27;20529;-69
2023/10/01 05:45:04;;;;;;;21.03;15.80;;;7.30;99.90;;;;;;5110500;28;20245;-69
2023/10/01 05:47:49;;;;;;;21.20;15.50;;;7.40;99.90;;;;;;5110433;28;20543;-69
2023/10/01 05:50:18;;;;;;;20.47;15.10;;;7.40;99.90;;;;;;5110680;28;20200;-69
2023/10/01 05:52:45;;;;;;;20.60;15.20;;;7.50;99.90;;;;;;5110456;28;20207;-69
2023/10/01 05:55:15;;;;;;;18.03;13.47;;;7.50;99.90;;;;;;5110470;28;20585;-70
2023/10/01 05:57:43;;;;;;;16.67;13.40;;;7.40;99.90;;;;;;5110240;28;20715;-70
2023/10/01 06:00:18;;;;;;;18.43;13.40;;;7.30;99.90;;;;;;5110060;28;20196;-70
2023/10/01 06:02:47;;;;;;;18.63;13.37;;;7.30;99.90;;;;;;5110212;28;20195;-70
2023/10/01 06:05:31;;;;;;;18.23;13.50;;;7.50;99.90;;;;;;5110496;28;20231;-70
2023/10/01 06:07:58;;;;;;;18.93;13.90;;;7.60;99.90;;;;;;5109899;28;20197;-70
2023/10/01 06:10:26;;;;;;;17.57;14.00;;;7.60;99.90;;;;;;5110066;28;20199;-70
2023/10/01 06:12:56;;;;;;;17.47;13.87;;;7.60;99.90;;;;;;5110353;28;20283;-70
2023/10/01 06:15:29;;;;;;;18.67;13.60;;;7.80;99.90;;;;;;5110050;28;20720;-70
2023/10/01 06:17:56;;;;;;;19.37;13.43;;;7.90;99.90;;;;;;5110070;28;20269;-71
2023/10/01 06:20:26;;;;;;;21.90;14.97;;;8.00;99.90;;;;;;5109903;28;20704;-70
2023/10/01 06:22:54;;;;;;;17.83;13.83;;;8.10;99.90;;;;;;5109878;28;20196;-70
2023/10/01 06:25:37;;;;;;;16.30;13.27;;;8.20;99.90;;;;;;5109839;28;20257;-70
2023/10/01 06:28:09;;;;;;;18.53;13.57;;;8.30;99.90;;;;;;5109920;28;20192;-70
2023/10/01 06:30:39;;;;;;;18.07;12.83;;;8.40;99.90;;;;;;5109857;28;20221;-71
2023/10/01 06:33:08;;;;;;;17.23;12.83;;;8.60;99.90;;;;;;5109658;28;20211;-71
2023/10/01 06:35:35;;;;;;;16.53;13.13;;;8.70;99.90;;;;;;5109551;28;20200;-71
2023/10/01 06:38:02;;;;;;;15.83;12.23;;;8.80;99.90;;;;;;5109677;28;20207;-70
2023/10/01 06:40:32;;;;;;;16.17;12.10;;;8.80;99.90;;;;;;5109254;28;20579;-70
2023/10/01 06:42:59;;;;;;;14.33;12.20;;;8.90;99.90;;;;;;5109607;28;20597;-70
2023/10/01 06:45:44;;;;;;;14.73;12.73;;;9.10;99.90;;;;;;5109465;28;20272;-70
2023/10/01 06:48:14;;;;;;;13.80;11.87;;;9.30;99.90;;;;;;5109394;28;20559;-70
2023/10/01 06:50:44;;;;;;;13.87;12.10;;;9.50;99.90;;;;;;5109328;28;20234;-70
2023/10/01 06:53:11;;;;;;;15.87;12.27;;;9.60;99.90;;;;;;5100029;28;20196;-70
2023/10/01 06:55:39;;;;;;;15.70;12.00;;;9.80;99.90;;;;;;5095712;28;20302;-70
2023/10/01 06:58:07;;;;;;;19.07;12.47;;;10.00;99.90;;;;;;5095577;28;20203;-70
2023/10/01 07:00:36;;;;;;;14.83;12.20;;;10.10;99.90;;;;;;5095317;28;20647;-70
2023/10/01 07:05:45;;;;;;;15.70;11.50;;;10.40;99.90;;;;;;5095443;28;20192;-71
2023/10/01 07:08:12;;;;;;;16.17;12.20;;;10.70;99.90;;;;;;5095462;28;20192;-69
2023/10/01 07:10:39;;;;;;;14.33;11.93;;;10.90;99.90;;;;;;5095121;28;20622;-70
2023/10/01 07:13:05;;;;;;;15.20;12.47;;;11.00;99.90;;;;;;5095102;28;20196;-70
2023/10/01 07:15:39;;;;;;;13.03;11.53;;;11.10;99.90;;;;;;5095281;28;20274;-70
2023/10/01 07:18:15;;;;;;;13.23;10.73;;;11.20;99.90;;;;;;5095244;28;20201;-70
2023/10/01 07:20:44;;;;;;;16.10;11.93;;;11.30;99.90;;;;;;5095005;28;20555;-70
2023/10/01 07:23:12;;;;;;;14.60;11.23;;;11.40;99.90;;;;;;5094982;28;20235;-70
2023/10/01 07:25:38;;;;;;;13.00;10.50;;;11.40;99.90;;;;;;5094919;28;20726;-68
2023/10/01 07:28:06;;;;;;;15.97;11.10;;;11.40;99.90;;;;;;5094866;28;20207;-70
2023/10/01 07:30:45;;;;;;;14.80;11.83;;;11.50;99.90;;;;;;5095372;28;20274;-68
2023/10/01 07:33:14;;;;;;;14.87;11.63;;;11.60;99.90;;;;;;5099784;28;20192;-68
2023/10/01 07:35:41;;;;;;;14.10;11.63;;;11.70;99.90;;;;;;5099510;28;20208;-67
2023/10/01 07:38:08;;;;;;;16.43;11.00;;;12.00;99.90;;;;;;5095015;28;20287;-69
2023/10/01 07:40:52;;;;;;;17.60;13.77;;;12.10;99.90;;;;;;5094936;28;20277;-67
2023/10/01 07:43:21;;;;;;;15.77;11.77;;;12.30;99.90;;;;;;5094773;28;20778;-69
2023/10/01 07:45:55;;;;;;;14.80;11.53;;;12.60;99.90;;;;;;5094870;28;20199;-68
2023/10/01 07:48:24;;;;;;;14.87;11.13;;;12.90;99.90;;;;;;5094552;28;20203;-68
2023/10/01 07:50:51;;;;;;;16.33;11.27;;;13.10;99.90;;;;;;5094798;28;20196;-69
2023/10/01 07:53:18;;;;;;;15.60;12.90;;;13.30;99.90;;;;;;5094731;28;20291;-68
2023/10/01 07:55:46;;;;;;;17.53;12.17;;;13.50;99.90;;;;;;5094649;28;20558;-68
2023/10/01 07:58:44;;;;;;;14.03;11.20;;;13.70;99.90;;;;;;5090610;28;20203;-68
2023/10/01 08:03:56;;;;;;;15.13;11.30;;;14.20;99.90;;;;;;5088797;28;20196;-69
2023/10/01 08:06:29;;;;;;;15.33;11.57;;;14.40;99.90;;;;;;5090947;28;20210;-68
2023/10/01 08:08:59;;;;;;;13.03;10.87;;;14.60;99.90;;;;;;5090720;28;20557;-68
2023/10/01 08:14:16;;;;;;;15.60;11.10;;;15.20;99.90;;;;;;5070874;28;20318;-68
2023/10/01 08:16:47;;;;;;;14.68;11.07;;;15.30;99.90;;;;;;5090746;28;20212;-69
2023/10/01 08:19:20;;;;;;;15.48;11.15;;;15.40;99.90;;;;;;5090512;28;20232;-69
2023/10/01 08:21:50;;;;;;;14.02;10.40;;;15.50;99.90;;;;;;5090259;28;20552;-69
2023/10/01 08:24:19;;;;;;;18.00;12.60;;;15.90;99.90;;;;;;5090506;28;20287;-69
2023/10/01 08:26:57;;;;;;;14.05;10.43;;;16.20;99.90;;;;;;5090175;28;20546;-69
2023/10/01 08:29:28;;;;;;;16.05;10.27;;;16.50;99.90;;;;;;5090376;28;20207;-69
2023/10/01 08:32:09;;;;;;;15.30;10.45;;;16.80;99.90;;;;;;5090312;28;20729;-69
2023/10/01 08:35:03;;;;;;;18.88;11.43;;;17.10;99.90;;;;;;5090268;28;20207;-69
2023/10/01 08:37:31;;;;;;;12.48;10.05;;;17.50;99.90;;;;;;5089636;28;20262;-70
2023/10/01 08:39:57;;;;;;;16.52;11.18;;;17.80;99.90;;;;;;5090026;28;20200;-70
2023/10/01 08:42:28;;;;;;;12.35;9.98;;;17.90;99.90;;;;;;5089871;28;20289;-69
2023/10/01 08:45:03;;;;;;;14.48;10.30;;;18.20;99.90;;;;;;5090232;28;20189;-70
2023/10/01 08:47:35;;;;;;;11.10;9.43;;;18.30;99.90;;;;;;5090158;28;20196;-70
2023/10/01 08:50:26;;;;;;;14.18;9.43;;;18.60;99.90;;;;;;5089587;28;20318;-70
2023/10/01 08:52:57;;;;;;;12.77;9.85;;;19.00;99.90;;;;;;5089977;28;20204;-70
2023/10/01 08:55:35;;;;;;;12.95;9.50;;;19.20;99.90;;;;;;5089823;28;20556;-70
2023/10/01 08:58:15;;;;;;;14.80;10.15;;;19.50;99.90;;;;;;5090089;28;20210;-70
2023/10/01 09:00:48;;;;;;;13.43;9.38;;;19.80;99.90;;;;;;5089965;28;20207;-70
2023/10/01 09:03:26;;;;;;;12.77;8.48;;;19.90;99.90;;;;;;5089639;28;20230;-70
2023/10/01 09:06:03;;;;;;;11.18;8.38;;;20.00;99.90;;;;;;5089621;28;20221;-70
2023/10/01 09:08:31;;;;;;;10.75;8.13;;;20.40;99.90;;;;;;5089411;28;20540;-70
2023/10/01 09:11:00;;;;;;;11.32;8.23;;;20.50;99.90;;;;;;5089486;28;20208;-70
2023/10/01 09:13:30;;;;;;;9.52;7.78;;;21.00;99.90;;;;;;5089035;28;20208;-70
2023/10/01 09:16:10;;;;;;;12.18;7.25;;;21.10;99.90;;;;;;5088919;28;20287;-70
2023/10/01 09:18:38;;;;;;;11.07;7.82;;;21.20;99.90;;;;;;5091693;28;20196;-73
2023/10/01 09:21:08;;;;;;;10.82;7.45;;;21.40;99.90;;;;;;5092811;28;20269;-72
2023/10/01 09:23:55;;;;;;;11.98;8.13;;;21.70;99.90;;;;;;5092862;28;20218;-72
2023/10/01 09:26:39;;;;;;;15.32;7.70;;;21.50;99.30;;;;;;5092648;28;20226;-71
2023/10/01 09:29:13;;;;;;;11.13;7.70;;;22.10;99.90;;;;;;5088933;28;20200;-70
2023/10/01 09:31:52;;;;;;;9.32;7.30;;;22.50;98.20;;;;;;5089309;28;20678;-71
2023/10/01 09:34:31;;;;;;;10.07;7.00;;;22.20;96.80;;;;;;5088965;28;20555;-71
2023/10/01 09:37:04;;;;;;;9.05;7.13;;;22.20;95.00;;;;;;5089064;28;20208;-71
2023/10/01 09:39:38;;;;;;;10.32;7.18;;;21.70;95.40;;;;;;5089412;28;20246;-71
2023/10/01 09:42:22;;;;;;;10.68;7.32;;;21.80;94.70;;;;;;5088917;28;20691;-71
2023/10/01 09:44:52;;;;;;;9.35;6.35;;;22.10;94.30;;;;;;5088957;28;20602;-71
2023/10/01 09:47:23;;;;;;;9.07;6.75;;;22.00;94.20;;;;;;5088760;28;20204;-71
2023/10/01 09:49:52;;;;;;;9.23;6.90;;;22.40;93.00;;;;;;5089246;28;20204;-71
2023/10/01 09:52:30;;;;;;;9.90;6.90;;;22.80;92.40;;;;;;5089028;28;20211;-70
2023/10/01 09:55:02;;;;;;;7.88;6.40;;;22.60;90.80;;;;;;5089238;28;20204;-70
2023/10/01 09:57:34;;;;;;;9.38;6.95;;;22.30;90.80;;;;;;5088614;28;20828;-71
2023/10/01 10:00:14;;;;;;;8.93;7.15;;;22.70;91.00;;;;;;5089010;28;20287;-70
2023/10/01 10:02:51;;;;;;;10.57;7.65;;;22.60;90.30;;;;;;5089219;28;20224;-73
2023/10/01 10:05:24;;;;;;;11.88;7.78;;;23.10;90.10;;;;;;5089057;28;20329;-70
2023/10/01 10:07:53;;;;;;;13.48;7.68;;;23.50;88.90;;;;;;5088879;28;20196;-70
2023/10/01 10:10:25;;;;;;;10.38;7.30;;;24.30;87.60;;;;;;5088572;28;20494;-72
2023/10/01 10:12:56;;;;;;;11.02;6.80;;;24.80;84.20;;;;;;5089346;28;20196;-72
2023/10/01 10:15:57;;;;;;;8.43;6.90;;;24.50;79.80;;;;;;5088849;28;20566;-72
2023/10/01 10:18:25;;;;;;;9.15;6.93;;;24.30;79.50;;;;;;5089607;28;20203;-71
2023/10/01 10:20:59;;;;;;;11.07;7.18;;;24.30;80.40;;;;;;5092589;28;20246;-70
2023/10/01 10:23:33;;;;;;;9.93;7.40;;;25.30;77.80;;;;;;5092243;28;20223;-71
2023/10/01 10:26:38;;;;;;;8.57;7.25;;;25.40;76.60;;;;;;5091159;28;20204;-72
2023/10/01 10:29:10;;;;;;;9.48;7.03;;;25.40;75.20;;;;;;5095048;28;20197;-71
2023/10/01 10:31:37;;;;;;;9.50;7.05;;;26.40;71.70;;;;;;5095896;28;20624;-70
2023/10/01 10:34:21;;;;;;;8.95;6.72;;;26.40;70.40;;;;;;5096237;28;20204;-69
2023/10/01 10:36:52;;;;;;;8.80;6.70;;;27.80;67.30;;;;;;5096078;28;20283;-70
2023/10/01 10:40:12;;;;;;;9.10;7.22;;;27.80;62.90;;;;;;5095945;28;20200;-70
2023/10/01 10:42:41;;;;;;;9.40;7.20;;;28.20;60.60;;;;;;5095902;28;20223;-70
2023/10/01 10:45:20;;;;;;;8.05;6.53;;;28.70;58.50;;;;;;5095672;28;20659;-70
2023/10/01 10:48:01;;;;;;;10.52;7.55;;;29.70;56.50;;;;;;5096080;28;20207;-70
2023/10/01 10:50:48;;;;;;;9.13;7.00;;;29.50;53.70;;;;;;5095931;28;20196;-70
2023/10/01 10:53:17;;;;;;;8.55;6.75;;;28.90;54.80;;;;;;5095829;28;20203;-70
2023/10/01 10:56:00;;;;;;;8.27;6.60;;;28.90;54.00;;;;;;5095711;28;20196;-70
2023/10/01 10:58:31;;;;;;;8.45;7.07;;;30.10;53.20;;;;;;5095801;28;20215;-70
2023/10/01 11:01:15;;;;;;;7.38;6.45;;;30.80;51.70;;;;;;5095618;28;20203;-70
2023/10/01 11:03:43;;;;;;;10.23;6.88;;;30.10;47.90;;;;;;5095548;28;20227;-70
2023/10/01 11:06:21;;;;;;;8.77;6.45;;;30.10;47.30;;;;;;5095450;28;20678;-69
2023/10/01 11:08:53;;;;;;;8.73;6.18;;;29.20;45.90;;;;;;5095721;28;20202;-69
2023/10/01 11:11:24;;;;;;;8.32;6.40;;;29.40;46.30;;;;;;5095596;28;20216;-70
2023/10/01 11:14:00;;;;;;;7.47;6.47;;;29.50;44.70;;;;;;5095377;28;20204;-70
2023/10/01 11:16:37;;;;;;;7.60;5.95;;;29.20;44.80;;;;;;5095161;28;20725;-69
2023/10/01 11:19:13;;;;;;;8.77;6.40;;;30.60;44.50;;;;;;5095172;28;20195;-70
2023/10/01 11:21:51;;;;;;;8.77;6.78;;;30.80;43.50;;;;;;5095023;28;20283;-71
2023/10/01 11:24:17;;;;;;;8.07;5.80;;;30.30;44.30;;;;;;5095423;28;20203;-71
2023/10/01 11:27:18;;;;;;;7.00;6.03;;;30.50;42.40;;;;;;5099794;28;20192;-71
2023/10/01 11:29:58;;;;;;;7.10;6.20;;;31.80;42.60;;;;;;5097032;28;20200;-71
2023/10/01 11:33:12;;;;;;;8.25;7.07;;;32.70;42.10;;;;;;5095353;28;20204;-71
2023/10/01 11:35:41;;;;;;;7.20;6.15;;;34.00;39.70;;;;;;5094847;28;20667;-71
2023/10/01 11:38:10;;;;;;;6.03;5.43;;;34.50;37.40;;;;;;5094874;28;20298;-71
2023/10/01 11:43:36;;;;;;;8.02;6.38;;;33.50;30.10;;;;;;5094691;28;20231;-71
2023/10/01 11:46:20;;;;;;;7.32;6.50;;;33.40;34.20;;;;;;5094642;28;20249;-71
2023/10/01 11:48:57;;;;;;;8.93;7.20;;;33.40;35.10;;;;;;5094925;28;20192;-71
2023/10/01 11:51:41;;;;;;;8.95;6.78;;;34.10;35.10;;;;;;5094824;28;20201;-71
2023/10/01 11:54:11;;;;;;;9.50;6.50;;;33.20;33.90;;;;;;5094694;28;20242;-71
2023/10/01 11:56:41;;;;;;;10.30;7.03;;;34.10;34.30;;;;;;5094660;28;20207;-71
2023/10/01 11:59:10;;;;;;;7.90;6.95;;;34.90;33.60;;;;;;5094598;28;20200;-71
2023/10/01 12:01:47;;;;;;;11.57;6.85;;;34.70;32.20;;;;;;5094627;28;20393;-71
2023/10/01 12:04:21;;;;;;;8.43;7.53;;;34.80;33.60;;;;;;5094383;28;20233;-71
2023/10/01 12:06:49;;;;;;;8.85;6.53;;;35.30;32.50;;;;;;5094304;28;20646;-71
2023/10/01 12:09:18;;;;;;;8.02;7.05;;;36.30;32.00;;;;;;5094432;28;20254;-72
2023/10/01 12:12:02;;;;;;;8.20;6.88;;;36.30;30.80;;;;;;5094387;28;20626;-71
2023/10/01 12:14:29;;;;;;;8.52;6.78;;;36.60;30.70;;;;;;5094271;28;20203;-71
2023/10/01 12:17:00;;;;;;;7.88;6.47;;;36.70;28.30;;;;;;5094029;28;20875;-71
2023/10/01 12:19:29;;;;;;;7.43;6.57;;;36.00;28.00;;;;;;5093962;28;20673;-71
2023/10/01 12:22:09;;;;;;;8.25;6.95;;;35.30;28.50;;;;;;5094211;28;20202;-71
2023/10/01 12:24:40;;;;;;;8.13;6.45;;;34.10;29.20;;;;;;5093993;28;20563;-71
2023/10/01 12:27:11;;;;;;;7.68;6.50;;;34.60;29.80;;;;;;5094082;28;20302;-71
2023/10/01 12:29:44;;;;;;;7.35;6.50;;;35.30;28.80;;;;;;5093831;28;20203;-71
2023/10/01 12:32:14;;;;;;;8.88;6.13;;;35.90;29.00;;;;;;5094091;28;20261;-71
2023/10/01 12:34:42;;;;;;;7.68;6.50;;;35.80;26.80;;;;;;5094050;28;20207;-71
2023/10/01 12:37:35;;;;;;;8.93;6.47;;;35.60;27.50;;;;;;5093780;28;20555;-71
2023/10/01 12:40:14;;;;;;;7.80;7.00;;;35.70;27.50;;;;;;5093536;28;20196;-71
2023/10/01 12:42:45;;;;;;;7.68;6.03;;;35.70;27.10;;;;;;5093753;28;20702;-71
2023/10/01 12:45:14;;;;;;;6.53;5.53;;;35.40;25.70;;;;;;5093794;28;20196;-71
2023/10/01 12:47:50;;;;;;;8.93;6.30;;;36.30;25.30;;;;;;5093644;28;20195;-71
2023/10/01 12:50:26;;;;;;;10.18;6.82;;;35.10;25.50;;;;;;5093186;28;20235;-71
2023/10/01 12:53:19;;;;;;;7.30;6.32;;;35.70;25.10;;;;;;5093815;28;20199;-71
2023/10/01 12:55:51;;;;;;;8.52;7.22;;;36.40;25.30;;;;;;5093399;28;20224;-71
2023/10/01 12:58:19;;;;;;;7.80;6.10;;;38.70;23.70;;;;;;5093533;28;20199;-71
2023/10/01 13:00:45;;;;;;;8.10;6.40;;;37.90;23.10;;;;;;5093453;28;20726;-72
2023/10/01 13:03:17;;;;;;;7.40;6.43;;;38.90;23.00;;;;;;5093260;28;20322;-71
2023/10/01 13:05:45;;;;;;;6.95;6.25;;;39.70;22.80;;;;;;5093679;28;20231;-72
2023/10/01 13:08:11;;;;;;;6.07;5.40;;;41.10;21.20;;;;;;5093494;28;20195;-72
2023/10/01 13:10:47;;;;;;;6.15;5.55;;;40.20;19.60;;;;;;5093195;28;20585;-71
2023/10/01 13:13:19;;;;;;;8.02;6.40;;;40.30;19.10;;;;;;5093353;28;20202;-71
2023/10/01 13:15:51;;;;;;;6.70;5.97;;;39.70;19.10;;;;;;5093503;28;20292;-71
2023/10/01 13:18:22;;;;;;;6.47;5.82;;;39.10;19.10;;;;;;5093261;28;20286;-71
2023/10/01 13:20:59;;;;;;;7.25;6.50;;;38.90;19.70;;;;;;5093380;28;20363;-71
2023/10/01 13:23:28;;;;;;;6.43;5.70;;;38.40;19.60;;;;;;5093111;28;20219;-71
2023/10/01 13:26:06;;;;;;;6.95;5.95;;;40.00;18.10;;;;;;5093030;28;20245;-71